sensor_id;sensor_type;location;lat;lon;timestamp;P1;durP1;ratioP1;P2;durP2;ratioP2
3589;SDS011;1809;48.470;9.226;2022-10-16T00:01:45;1.10;;;1.10;;
3589;SDS011;1809;48.470;9.226;2022-10-16T00:04:11;4.37;;;1.40;;
3589;SDS011;1809;48.470;9.226;2022-10-16T00:06:36;4.00;;;1.20;;
3589;SDS011;1809;48.470;9.226;2022-10-16T00:09:02;1.57;;;0.90;;
3589;SDS011;1809;48.470;9.226;2022-10-16T00:11:32;5.33;;;1.00;;
3589;SDS011;1809;48.470;9.226;2022-10-16T00:14:02;1.33;;;1.23;;
3589;SDS011;1809;48.470;9.226;2022-10-16T00:16:28;1.07;;;1.07;;
3589;SDS011;1809;48.470;9.226;2022-10-16T00:18:54;1.23;;;1.13;;
3589;SDS011;1809;48.470;9.226;2022-10-16T00:21:22;3.90;;;1.63;;
3589;SDS011;1809;48.470;9.226;2022-10-16T00:23:54;3.13;;;1.00;;
3589;SDS011;1809;48.470;9.226;2022-10-16T00:26:21;1.00;;;1.00;;
3589;SDS011;1809;48.470;9.226;2022-10-16T00:28:48;4.33;;;1.13;;
3589;SDS011;1809;48.470;9.226;2022-10-16T00:31:14;9.33;;;1.37;;
3589;SDS011;1809;48.470;9.226;2022-10-16T00:33:41;1.20;;;1.10;;
3589;SDS011;1809;48.470;9.226;2022-10-16T00:36:07;1.87;;;1.33;;
3589;SDS011;1809;48.470;9.226;2022-10-16T00:38:38;1.37;;;1.17;;
3589;SDS011;1809;48.470;9.226;2022-10-16T00:41:05;1.53;;;1.43;;
3589;SDS011;1809;48.470;9.226;2022-10-16T00:43:36;4.10;;;1.57;;
3589;SDS011;1809;48.470;9.226;2022-10-16T00:46:03;1.87;;;1.40;;
3589;SDS011;1809;48.470;9.226;2022-10-16T00:48:34;3.93;;;1.40;;
3589;SDS011;1809;48.470;9.226;2022-10-16T00:51:00;1.53;;;1.40;;
3589;SDS011;1809;48.470;9.226;2022-10-16T00:53:26;1.50;;;1.40;;
3589;SDS011;1809;48.470;9.226;2022-10-16T00:55:52;1.20;;;1.20;;
3589;SDS011;1809;48.470;9.226;2022-10-16T00:58:18;3.70;;;1.30;;
3589;SDS011;1809;48.470;9.226;2022-10-16T01:00:45;2.93;;;1.10;;
3589;SDS011;1809;48.470;9.226;2022-10-16T01:06:07;1.93;;;1.07;;
3589;SDS011;1809;48.470;9.226;2022-10-16T01:08:49;5.60;;;1.20;;
3589;SDS011;1809;48.470;9.226;2022-10-16T01:17:27;1.10;;;1.10;;
3589;SDS011;1809;48.470;9.226;2022-10-16T01:25:19;1.73;;;1.00;;
3589;SDS011;1809;48.470;9.226;2022-10-16T01:27:54;1.00;;;1.00;;
3589;SDS011;1809;48.470;9.226;2022-10-16T01:30:26;4.53;;;1.00;;
3589;SDS011;1809;48.470;9.226;2022-10-16T01:33:00;8.63;;;1.00;;
3589;SDS011;1809;48.470;9.226;2022-10-16T01:35:34;5.40;;;1.30;;
3589;SDS011;1809;48.470;9.226;2022-10-16T01:40:39;7.80;;;1.10;;
3589;SDS011;1809;48.470;9.226;2022-10-16T01:43:14;2.50;;;0.90;;
3589;SDS011;1809;48.470;9.226;2022-10-16T01:45:44;1.00;;;1.00;;
3589;SDS011;1809;48.470;9.226;2022-10-16T01:48:14;8.23;;;1.33;;
3589;SDS011;1809;48.470;9.226;2022-10-16T01:50:44;1.83;;;1.33;;
3589;SDS011;1809;48.470;9.226;2022-10-16T01:53:15;1.30;;;1.20;;
3589;SDS011;1809;48.470;9.226;2022-10-16T01:55:44;1.63;;;1.40;;
3589;SDS011;1809;48.470;9.226;2022-10-16T01:58:13;2.40;;;1.10;;
3589;SDS011;1809;48.470;9.226;2022-10-16T02:00:39;1.03;;;1.03;;
3589;SDS011;1809;48.470;9.226;2022-10-16T02:03:09;2.70;;;1.37;;
3589;SDS011;1809;48.470;9.226;2022-10-16T02:05:41;2.43;;;1.20;;
3589;SDS011;1809;48.470;9.226;2022-10-16T02:08:08;9.93;;;1.40;;
3589;SDS011;1809;48.470;9.226;2022-10-16T02:10:34;3.00;;;1.30;;
3589;SDS011;1809;48.470;9.226;2022-10-16T02:13:06;4.80;;;1.40;;
3589;SDS011;1809;48.470;9.226;2022-10-16T02:15:35;1.30;;;1.20;;
3589;SDS011;1809;48.470;9.226;2022-10-16T02:18:02;2.63;;;1.20;;
3589;SDS011;1809;48.470;9.226;2022-10-16T02:20:29;1.43;;;1.20;;
3589;SDS011;1809;48.470;9.226;2022-10-16T02:23:01;1.40;;;1.30;;
3589;SDS011;1809;48.470;9.226;2022-10-16T02:25:32;1.07;;;1.03;;
3589;SDS011;1809;48.470;9.226;2022-10-16T02:31:01;1.77;;;1.23;;
3589;SDS011;1809;48.470;9.226;2022-10-16T02:33:30;1.37;;;1.17;;
3589;SDS011;1809;48.470;9.226;2022-10-16T02:35:58;1.30;;;1.20;;
3589;SDS011;1809;48.470;9.226;2022-10-16T02:38:24;1.07;;;1.07;;
3589;SDS011;1809;48.470;9.226;2022-10-16T02:40:51;3.37;;;1.23;;
3589;SDS011;1809;48.470;9.226;2022-10-16T02:43:17;7.13;;;1.57;;
3589;SDS011;1809;48.470;9.226;2022-10-16T02:45:43;1.43;;;1.43;;
3589;SDS011;1809;48.470;9.226;2022-10-16T02:48:08;2.07;;;1.60;;
3589;SDS011;1809;48.470;9.226;2022-10-16T02:50:34;6.53;;;1.53;;
3589;SDS011;1809;48.470;9.226;2022-10-16T02:52:59;1.40;;;1.10;;
3589;SDS011;1809;48.470;9.226;2022-10-16T02:55:25;2.73;;;1.60;;
3589;SDS011;1809;48.470;9.226;2022-10-16T02:57:51;1.20;;;1.10;;
3589;SDS011;1809;48.470;9.226;2022-10-16T03:00:17;2.13;;;1.40;;
3589;SDS011;1809;48.470;9.226;2022-10-16T03:02:43;1.50;;;1.40;;
3589;SDS011;1809;48.470;9.226;2022-10-16T03:05:09;1.83;;;1.27;;
3589;SDS011;1809;48.470;9.226;2022-10-16T03:07:34;2.70;;;1.13;;
3589;SDS011;1809;48.470;9.226;2022-10-16T03:10:00;1.00;;;1.00;;
3589;SDS011;1809;48.470;9.226;2022-10-16T03:12:26;1.67;;;1.10;;
3589;SDS011;1809;48.470;9.226;2022-10-16T03:14:52;3.07;;;1.17;;
3589;SDS011;1809;48.470;9.226;2022-10-16T03:17:17;2.23;;;1.30;;
3589;SDS011;1809;48.470;9.226;2022-10-16T03:19:43;1.40;;;1.30;;
3589;SDS011;1809;48.470;9.226;2022-10-16T03:22:08;4.50;;;1.30;;
3589;SDS011;1809;48.470;9.226;2022-10-16T03:24:34;3.00;;;1.30;;
3589;SDS011;1809;48.470;9.226;2022-10-16T03:26:59;3.23;;;1.30;;
3589;SDS011;1809;48.470;9.226;2022-10-16T03:29:25;2.63;;;1.03;;
3589;SDS011;1809;48.470;9.226;2022-10-16T03:31:51;1.73;;;1.43;;
3589;SDS011;1809;48.470;9.226;2022-10-16T03:34:16;4.97;;;1.40;;
3589;SDS011;1809;48.470;9.226;2022-10-16T03:36:42;1.20;;;1.10;;
3589;SDS011;1809;48.470;9.226;2022-10-16T03:39:07;9.30;;;1.57;;
3589;SDS011;1809;48.470;9.226;2022-10-16T03:41:32;1.37;;;1.20;;
3589;SDS011;1809;48.470;9.226;2022-10-16T03:43:58;1.77;;;1.20;;
3589;SDS011;1809;48.470;9.226;2022-10-16T03:46:23;3.87;;;1.10;;
3589;SDS011;1809;48.470;9.226;2022-10-16T03:48:48;5.70;;;1.27;;
3589;SDS011;1809;48.470;9.226;2022-10-16T03:51:14;1.10;;;1.00;;
3589;SDS011;1809;48.470;9.226;2022-10-16T03:53:39;4.80;;;1.80;;
3589;SDS011;1809;48.470;9.226;2022-10-16T03:56:04;3.63;;;1.17;;
3589;SDS011;1809;48.470;9.226;2022-10-16T03:58:30;2.07;;;1.30;;
3589;SDS011;1809;48.470;9.226;2022-10-16T04:00:55;4.80;;;1.27;;
3589;SDS011;1809;48.470;9.226;2022-10-16T04:03:20;1.60;;;1.50;;
3589;SDS011;1809;48.470;9.226;2022-10-16T04:05:54;1.50;;;1.10;;
3589;SDS011;1809;48.470;9.226;2022-10-16T04:08:22;1.10;;;1.10;;
3589;SDS011;1809;48.470;9.226;2022-10-16T04:10:47;1.50;;;1.40;;
3589;SDS011;1809;48.470;9.226;2022-10-16T04:13:13;6.57;;;2.07;;
3589;SDS011;1809;48.470;9.226;2022-10-16T04:15:38;3.90;;;1.10;;
3589;SDS011;1809;48.470;9.226;2022-10-16T04:18:04;1.97;;;1.10;;
3589;SDS011;1809;48.470;9.226;2022-10-16T04:20:30;9.10;;;1.47;;
3589;SDS011;1809;48.470;9.226;2022-10-16T04:22:55;1.70;;;1.60;;
3589;SDS011;1809;48.470;9.226;2022-10-16T04:25:21;3.07;;;1.27;;
3589;SDS011;1809;48.470;9.226;2022-10-16T04:27:47;8.73;;;1.47;;
3589;SDS011;1809;48.470;9.226;2022-10-16T04:30:12;3.37;;;1.60;;
3589;SDS011;1809;48.470;9.226;2022-10-16T04:32:38;2.93;;;1.57;;
3589;SDS011;1809;48.470;9.226;2022-10-16T04:35:04;1.47;;;1.37;;
3589;SDS011;1809;48.470;9.226;2022-10-16T04:37:29;1.40;;;1.27;;
3589;SDS011;1809;48.470;9.226;2022-10-16T04:39:55;2.23;;;1.20;;
3589;SDS011;1809;48.470;9.226;2022-10-16T04:42:20;2.50;;;1.30;;
3589;SDS011;1809;48.470;9.226;2022-10-16T04:44:46;1.60;;;1.50;;
3589;SDS011;1809;48.470;9.226;2022-10-16T04:47:11;1.33;;;1.23;;
3589;SDS011;1809;48.470;9.226;2022-10-16T04:49:37;1.50;;;1.40;;
3589;SDS011;1809;48.470;9.226;2022-10-16T04:52:02;3.53;;;1.30;;
3589;SDS011;1809;48.470;9.226;2022-10-16T04:54:27;2.93;;;1.07;;
3589;SDS011;1809;48.470;9.226;2022-10-16T04:56:53;2.17;;;1.30;;
3589;SDS011;1809;48.470;9.226;2022-10-16T04:59:19;1.30;;;1.20;;
3589;SDS011;1809;48.470;9.226;2022-10-16T05:01:45;5.17;;;1.63;;
3589;SDS011;1809;48.470;9.226;2022-10-16T05:04:11;1.63;;;1.50;;
3589;SDS011;1809;48.470;9.226;2022-10-16T05:06:37;1.20;;;1.10;;
3589;SDS011;1809;48.470;9.226;2022-10-16T05:09:04;1.93;;;1.47;;
3589;SDS011;1809;48.470;9.226;2022-10-16T05:11:29;1.70;;;1.60;;
3589;SDS011;1809;48.470;9.226;2022-10-16T05:13:55;4.53;;;1.23;;
3589;SDS011;1809;48.470;9.226;2022-10-16T05:16:20;1.50;;;1.37;;
3589;SDS011;1809;48.470;9.226;2022-10-16T05:18:46;3.93;;;1.33;;
3589;SDS011;1809;48.470;9.226;2022-10-16T05:21:11;1.67;;;1.50;;
3589;SDS011;1809;48.470;9.226;2022-10-16T05:23:36;2.13;;;1.20;;
3589;SDS011;1809;48.470;9.226;2022-10-16T05:26:02;1.27;;;1.27;;
3589;SDS011;1809;48.470;9.226;2022-10-16T05:28:28;1.47;;;1.37;;
3589;SDS011;1809;48.470;9.226;2022-10-16T05:30:55;1.40;;;1.30;;
3589;SDS011;1809;48.470;9.226;2022-10-16T05:33:23;2.70;;;1.57;;
3589;SDS011;1809;48.470;9.226;2022-10-16T05:35:52;3.80;;;1.60;;
3589;SDS011;1809;48.470;9.226;2022-10-16T05:38:20;1.33;;;1.27;;
3589;SDS011;1809;48.470;9.226;2022-10-16T05:40:52;4.10;;;1.23;;
3589;SDS011;1809;48.470;9.226;2022-10-16T05:43:18;1.83;;;1.07;;
3589;SDS011;1809;48.470;9.226;2022-10-16T05:45:44;2.40;;;2.20;;
3589;SDS011;1809;48.470;9.226;2022-10-16T05:48:18;2.30;;;2.10;;
3589;SDS011;1809;48.470;9.226;2022-10-16T05:50:43;9.27;;;2.00;;
3589;SDS011;1809;48.470;9.226;2022-10-16T05:53:09;1.77;;;1.67;;
3589;SDS011;1809;48.470;9.226;2022-10-16T05:55:34;4.03;;;1.87;;
3589;SDS011;1809;48.470;9.226;2022-10-16T05:58:00;5.63;;;2.17;;
3589;SDS011;1809;48.470;9.226;2022-10-16T06:00:32;17.87;;;2.57;;
3589;SDS011;1809;48.470;9.226;2022-10-16T06:02:57;2.30;;;2.10;;
3589;SDS011;1809;48.470;9.226;2022-10-16T06:05:22;3.07;;;1.60;;
3589;SDS011;1809;48.470;9.226;2022-10-16T06:07:48;5.83;;;3.33;;
3589;SDS011;1809;48.470;9.226;2022-10-16T06:10:14;3.43;;;3.10;;
3589;SDS011;1809;48.470;9.226;2022-10-16T06:12:40;3.83;;;3.10;;
3589;SDS011;1809;48.470;9.226;2022-10-16T06:15:05;2.60;;;2.40;;
3589;SDS011;1809;48.470;9.226;2022-10-16T06:17:32;1.70;;;1.60;;
3589;SDS011;1809;48.470;9.226;2022-10-16T06:19:58;1.60;;;1.50;;
3589;SDS011;1809;48.470;9.226;2022-10-16T06:22:24;3.53;;;1.83;;
3589;SDS011;1809;48.470;9.226;2022-10-16T06:24:52;3.83;;;1.50;;
3589;SDS011;1809;48.470;9.226;2022-10-16T06:27:18;2.40;;;1.63;;
3589;SDS011;1809;48.470;9.226;2022-10-16T06:29:44;3.90;;;1.77;;
3589;SDS011;1809;48.470;9.226;2022-10-16T06:32:10;3.10;;;1.30;;
3589;SDS011;1809;48.470;9.226;2022-10-16T06:34:36;3.90;;;2.27;;
3589;SDS011;1809;48.470;9.226;2022-10-16T06:37:02;1.30;;;1.20;;
3589;SDS011;1809;48.470;9.226;2022-10-16T06:39:27;3.10;;;1.60;;
3589;SDS011;1809;48.470;9.226;2022-10-16T06:41:56;1.43;;;1.33;;
3589;SDS011;1809;48.470;9.226;2022-10-16T06:44:22;1.90;;;1.40;;
3589;SDS011;1809;48.470;9.226;2022-10-16T06:46:48;7.23;;;1.47;;
3589;SDS011;1809;48.470;9.226;2022-10-16T06:49:16;10.20;;;1.70;;
3589;SDS011;1809;48.470;9.226;2022-10-16T06:51:50;4.30;;;1.97;;
3589;SDS011;1809;48.470;9.226;2022-10-16T06:54:22;2.60;;;1.80;;
3589;SDS011;1809;48.470;9.226;2022-10-16T06:56:50;7.17;;;2.80;;
3589;SDS011;1809;48.470;9.226;2022-10-16T06:59:19;6.83;;;2.20;;
3589;SDS011;1809;48.470;9.226;2022-10-16T07:01:48;3.90;;;1.53;;
3589;SDS011;1809;48.470;9.226;2022-10-16T07:04:14;1.60;;;1.50;;
3589;SDS011;1809;48.470;9.226;2022-10-16T07:06:42;3.10;;;1.90;;
3589;SDS011;1809;48.470;9.226;2022-10-16T07:09:14;1.70;;;1.60;;
3589;SDS011;1809;48.470;9.226;2022-10-16T07:11:40;5.87;;;1.33;;
3589;SDS011;1809;48.470;9.226;2022-10-16T07:14:12;2.00;;;1.37;;
3589;SDS011;1809;48.470;9.226;2022-10-16T07:16:41;1.53;;;1.43;;
3589;SDS011;1809;48.470;9.226;2022-10-16T07:19:07;6.43;;;1.43;;
3589;SDS011;1809;48.470;9.226;2022-10-16T07:21:40;1.40;;;1.30;;
3589;SDS011;1809;48.470;9.226;2022-10-16T07:24:07;2.23;;;1.63;;
3589;SDS011;1809;48.470;9.226;2022-10-16T07:26:37;9.13;;;2.83;;
3589;SDS011;1809;48.470;9.226;2022-10-16T07:29:04;2.80;;;2.20;;
3589;SDS011;1809;48.470;9.226;2022-10-16T07:31:32;2.70;;;1.47;;
3589;SDS011;1809;48.470;9.226;2022-10-16T07:33:59;1.70;;;1.60;;
3589;SDS011;1809;48.470;9.226;2022-10-16T07:36:25;1.63;;;1.53;;
3589;SDS011;1809;48.470;9.226;2022-10-16T07:38:51;2.20;;;1.70;;
3589;SDS011;1809;48.470;9.226;2022-10-16T07:41:19;1.63;;;1.53;;
3589;SDS011;1809;48.470;9.226;2022-10-16T07:43:48;3.37;;;1.60;;
3589;SDS011;1809;48.470;9.226;2022-10-16T07:46:19;2.00;;;1.77;;
3589;SDS011;1809;48.470;9.226;2022-10-16T07:48:46;1.70;;;1.60;;
3589;SDS011;1809;48.470;9.226;2022-10-16T07:51:17;2.50;;;1.40;;
3589;SDS011;1809;48.470;9.226;2022-10-16T07:53:44;1.60;;;1.50;;
3589;SDS011;1809;48.470;9.226;2022-10-16T07:56:09;4.13;;;1.80;;
3589;SDS011;1809;48.470;9.226;2022-10-16T07:58:35;1.73;;;1.57;;
3589;SDS011;1809;48.470;9.226;2022-10-16T08:01:04;2.40;;;1.50;;
3589;SDS011;1809;48.470;9.226;2022-10-16T08:03:34;3.50;;;1.53;;
3589;SDS011;1809;48.470;9.226;2022-10-16T08:06:00;4.07;;;1.47;;
3589;SDS011;1809;48.470;9.226;2022-10-16T08:08:30;2.47;;;1.23;;
3589;SDS011;1809;48.470;9.226;2022-10-16T08:10:59;1.53;;;1.43;;
3589;SDS011;1809;48.470;9.226;2022-10-16T08:13:24;1.87;;;1.60;;
3589;SDS011;1809;48.470;9.226;2022-10-16T08:15:51;3.50;;;1.67;;
3589;SDS011;1809;48.470;9.226;2022-10-16T08:18:18;4.60;;;2.10;;
3589;SDS011;1809;48.470;9.226;2022-10-16T08:20:44;1.77;;;1.67;;
3589;SDS011;1809;48.470;9.226;2022-10-16T08:23:09;2.23;;;1.83;;
3589;SDS011;1809;48.470;9.226;2022-10-16T08:25:37;1.70;;;1.60;;
3589;SDS011;1809;48.470;9.226;2022-10-16T08:28:06;2.00;;;1.90;;
3589;SDS011;1809;48.470;9.226;2022-10-16T08:30:33;4.00;;;2.30;;
3589;SDS011;1809;48.470;9.226;2022-10-16T08:32:59;3.37;;;1.63;;
3589;SDS011;1809;48.470;9.226;2022-10-16T08:35:26;1.47;;;1.47;;
3589;SDS011;1809;48.470;9.226;2022-10-16T08:37:52;2.03;;;1.60;;
3589;SDS011;1809;48.470;9.226;2022-10-16T08:45:40;2.80;;;2.10;;
3589;SDS011;1809;48.470;9.226;2022-10-16T08:48:21;3.07;;;1.80;;
3589;SDS011;1809;48.470;9.226;2022-10-16T08:50:51;1.77;;;1.67;;
3589;SDS011;1809;48.470;9.226;2022-10-16T08:53:18;1.70;;;1.60;;
3589;SDS011;1809;48.470;9.226;2022-10-16T08:55:50;7.00;;;4.73;;
3589;SDS011;1809;48.470;9.226;2022-10-16T08:58:18;4.00;;;3.60;;
3589;SDS011;1809;48.470;9.226;2022-10-16T09:00:46;4.30;;;2.40;;
3589;SDS011;1809;48.470;9.226;2022-10-16T09:09:02;8.17;;;4.93;;
3589;SDS011;1809;48.470;9.226;2022-10-16T09:11:53;3.40;;;3.10;;
3589;SDS011;1809;48.470;9.226;2022-10-16T09:22:58;1.93;;;1.83;;
3589;SDS011;1809;48.470;9.226;2022-10-16T09:25:47;2.67;;;2.00;;
3589;SDS011;1809;48.470;9.226;2022-10-16T09:28:14;2.60;;;1.40;;
3589;SDS011;1809;48.470;9.226;2022-10-16T09:30:42;3.07;;;1.70;;
3589;SDS011;1809;48.470;9.226;2022-10-16T09:33:09;2.17;;;2.07;;
3589;SDS011;1809;48.470;9.226;2022-10-16T09:35:43;3.27;;;2.00;;
3589;SDS011;1809;48.470;9.226;2022-10-16T09:38:32;3.37;;;2.53;;
3589;SDS011;1809;48.470;9.226;2022-10-16T09:41:02;3.07;;;1.53;;
3589;SDS011;1809;48.470;9.226;2022-10-16T09:43:49;3.00;;;1.70;;
3589;SDS011;1809;48.470;9.226;2022-10-16T09:46:27;7.33;;;1.83;;
3589;SDS011;1809;48.470;9.226;2022-10-16T09:49:00;2.00;;;1.77;;
3589;SDS011;1809;48.470;9.226;2022-10-16T09:51:32;1.40;;;1.27;;
3589;SDS011;1809;48.470;9.226;2022-10-16T09:56:39;2.90;;;1.57;;
3589;SDS011;1809;48.470;9.226;2022-10-16T09:59:10;2.00;;;1.90;;
3589;SDS011;1809;48.470;9.226;2022-10-16T10:01:52;5.70;;;1.83;;
3589;SDS011;1809;48.470;9.226;2022-10-16T10:04:20;2.97;;;1.97;;
3589;SDS011;1809;48.470;9.226;2022-10-16T10:06:49;1.83;;;1.73;;
3589;SDS011;1809;48.470;9.226;2022-10-16T10:11:55;3.10;;;1.30;;
3589;SDS011;1809;48.470;9.226;2022-10-16T10:14:35;2.93;;;1.50;;
3589;SDS011;1809;48.470;9.226;2022-10-16T10:19:38;1.43;;;1.07;;
3589;SDS011;1809;48.470;9.226;2022-10-16T10:30:24;7.87;;;1.60;;
3589;SDS011;1809;48.470;9.226;2022-10-16T10:35:50;2.00;;;1.90;;
3589;SDS011;1809;48.470;9.226;2022-10-16T10:41:18;1.80;;;1.70;;
3589;SDS011;1809;48.470;9.226;2022-10-16T10:46:55;4.13;;;1.53;;
3589;SDS011;1809;48.470;9.226;2022-10-16T10:49:39;1.70;;;1.60;;
3589;SDS011;1809;48.470;9.226;2022-10-16T10:55:10;2.17;;;1.40;;
3589;SDS011;1809;48.470;9.226;2022-10-16T11:08:55;1.80;;;1.70;;
3589;SDS011;1809;48.470;9.226;2022-10-16T11:14:19;2.60;;;1.37;;
3589;SDS011;1809;48.470;9.226;2022-10-16T11:16:53;8.13;;;2.80;;
3589;SDS011;1809;48.470;9.226;2022-10-16T11:19:37;2.60;;;1.37;;
3589;SDS011;1809;48.470;9.226;2022-10-16T11:24:55;1.70;;;1.60;;
3589;SDS011;1809;48.470;9.226;2022-10-16T11:27:36;2.20;;;1.40;;
3589;SDS011;1809;48.470;9.226;2022-10-16T11:30:12;4.47;;;1.30;;
3589;SDS011;1809;48.470;9.226;2022-10-16T11:33:39;2.73;;;1.47;;
3589;SDS011;1809;48.470;9.226;2022-10-16T11:38:16;3.03;;;1.60;;
3589;SDS011;1809;48.470;9.226;2022-10-16T11:40:46;1.07;;;1.07;;
3589;SDS011;1809;48.470;9.226;2022-10-16T11:43:17;1.73;;;1.63;;
3589;SDS011;1809;48.470;9.226;2022-10-16T11:45:51;2.33;;;1.50;;
3589;SDS011;1809;48.470;9.226;2022-10-16T11:56:19;3.83;;;1.37;;
3589;SDS011;1809;48.470;9.226;2022-10-16T12:01:31;6.93;;;1.90;;
3589;SDS011;1809;48.470;9.226;2022-10-16T12:06:40;1.80;;;1.70;;
3589;SDS011;1809;48.470;9.226;2022-10-16T12:09:36;1.70;;;1.60;;
3589;SDS011;1809;48.470;9.226;2022-10-16T12:12:02;1.73;;;1.73;;
3589;SDS011;1809;48.470;9.226;2022-10-16T12:14:36;5.43;;;2.30;;
3589;SDS011;1809;48.470;9.226;2022-10-16T12:17:25;1.70;;;1.60;;
3589;SDS011;1809;48.470;9.226;2022-10-16T12:23:04;5.57;;;1.70;;
3589;SDS011;1809;48.470;9.226;2022-10-16T12:30:54;1.97;;;1.87;;
3589;SDS011;1809;48.470;9.226;2022-10-16T12:33:26;1.50;;;1.40;;
3589;SDS011;1809;48.470;9.226;2022-10-16T12:35:54;2.43;;;2.20;;
3589;SDS011;1809;48.470;9.226;2022-10-16T12:38:21;1.97;;;1.87;;
3589;SDS011;1809;48.470;9.226;2022-10-16T12:40:59;3.40;;;2.10;;
3589;SDS011;1809;48.470;9.226;2022-10-16T12:48:34;2.07;;;1.97;;
3589;SDS011;1809;48.470;9.226;2022-10-16T12:51:19;1.97;;;1.87;;
3589;SDS011;1809;48.470;9.226;2022-10-16T12:56:47;1.60;;;1.50;;
3589;SDS011;1809;48.470;9.226;2022-10-16T13:13:56;2.70;;;1.70;;
3589;SDS011;1809;48.470;9.226;2022-10-16T13:19:27;2.17;;;2.03;;
3589;SDS011;1809;48.470;9.226;2022-10-16T13:22:15;8.03;;;2.07;;
3589;SDS011;1809;48.470;9.226;2022-10-16T13:30:14;9.00;;;1.70;;
3589;SDS011;1809;48.470;9.226;2022-10-16T13:32:50;2.50;;;1.90;;
3589;SDS011;1809;48.470;9.226;2022-10-16T13:35:36;2.00;;;1.90;;
3589;SDS011;1809;48.470;9.226;2022-10-16T13:38:24;1.83;;;1.73;;
3589;SDS011;1809;48.470;9.226;2022-10-16T13:43:23;2.50;;;2.13;;
3589;SDS011;1809;48.470;9.226;2022-10-16T13:45:57;5.07;;;2.00;;
3589;SDS011;1809;48.470;9.226;2022-10-16T13:48:39;2.17;;;2.03;;
3589;SDS011;1809;48.470;9.226;2022-10-16T13:51:12;4.30;;;2.03;;
3589;SDS011;1809;48.470;9.226;2022-10-16T13:53:40;7.53;;;2.20;;
3589;SDS011;1809;48.470;9.226;2022-10-16T13:56:15;2.63;;;2.43;;
3589;SDS011;1809;48.470;9.226;2022-10-16T13:58:42;2.80;;;2.03;;
3589;SDS011;1809;48.470;9.226;2022-10-16T14:01:25;2.43;;;2.07;;
3589;SDS011;1809;48.470;9.226;2022-10-16T14:03:53;2.03;;;1.93;;
3589;SDS011;1809;48.470;9.226;2022-10-16T14:06:27;1.70;;;1.60;;
3589;SDS011;1809;48.470;9.226;2022-10-16T14:08:55;3.90;;;1.93;;
3589;SDS011;1809;48.470;9.226;2022-10-16T14:11:26;2.23;;;2.03;;
3589;SDS011;1809;48.470;9.226;2022-10-16T14:13:51;5.00;;;2.27;;
3589;SDS011;1809;48.470;9.226;2022-10-16T14:16:21;4.03;;;2.20;;
3589;SDS011;1809;48.470;9.226;2022-10-16T14:18:57;2.07;;;1.97;;
3589;SDS011;1809;48.470;9.226;2022-10-16T14:21:26;2.10;;;2.00;;
3589;SDS011;1809;48.470;9.226;2022-10-16T14:23:52;2.70;;;2.03;;
3589;SDS011;1809;48.470;9.226;2022-10-16T14:26:19;3.23;;;1.80;;
3589;SDS011;1809;48.470;9.226;2022-10-16T14:28:47;2.00;;;1.90;;
3589;SDS011;1809;48.470;9.226;2022-10-16T14:31:23;3.57;;;3.27;;
3589;SDS011;1809;48.470;9.226;2022-10-16T14:33:59;2.17;;;2.07;;
3589;SDS011;1809;48.470;9.226;2022-10-16T14:36:26;2.63;;;1.93;;
3589;SDS011;1809;48.470;9.226;2022-10-16T14:39:03;2.83;;;1.83;;
3589;SDS011;1809;48.470;9.226;2022-10-16T14:41:47;4.50;;;2.03;;
3589;SDS011;1809;48.470;9.226;2022-10-16T14:44:14;2.63;;;2.07;;
3589;SDS011;1809;48.470;9.226;2022-10-16T14:46:42;5.00;;;2.03;;
3589;SDS011;1809;48.470;9.226;2022-10-16T14:51:35;4.77;;;2.70;;
3589;SDS011;1809;48.470;9.226;2022-10-16T14:54:01;2.77;;;2.53;;
3589;SDS011;1809;48.470;9.226;2022-10-16T14:56:31;2.63;;;1.93;;
3589;SDS011;1809;48.470;9.226;2022-10-16T14:59:07;3.10;;;1.77;;
3589;SDS011;1809;48.470;9.226;2022-10-16T15:01:38;3.20;;;2.47;;
3589;SDS011;1809;48.470;9.226;2022-10-16T15:04:03;3.00;;;2.80;;
3589;SDS011;1809;48.470;9.226;2022-10-16T15:06:29;4.17;;;2.73;;
3589;SDS011;1809;48.470;9.226;2022-10-16T15:08:54;4.30;;;3.23;;
3589;SDS011;1809;48.470;9.226;2022-10-16T15:11:19;5.63;;;4.87;;
3589;SDS011;1809;48.470;9.226;2022-10-16T15:13:45;4.33;;;4.03;;
3589;SDS011;1809;48.470;9.226;2022-10-16T15:16:12;11.63;;;2.63;;
3589;SDS011;1809;48.470;9.226;2022-10-16T15:18:39;4.97;;;2.10;;
3589;SDS011;1809;48.470;9.226;2022-10-16T15:21:05;7.13;;;1.97;;
3589;SDS011;1809;48.470;9.226;2022-10-16T15:23:30;5.23;;;2.30;;
3589;SDS011;1809;48.470;9.226;2022-10-16T15:25:56;7.67;;;2.80;;
3589;SDS011;1809;48.470;9.226;2022-10-16T15:28:22;3.43;;;2.40;;
3589;SDS011;1809;48.470;9.226;2022-10-16T15:30:49;2.97;;;2.73;;
3589;SDS011;1809;48.470;9.226;2022-10-16T15:33:20;10.20;;;3.03;;
3589;SDS011;1809;48.470;9.226;2022-10-16T15:35:48;2.50;;;2.40;;
3589;SDS011;1809;48.470;9.226;2022-10-16T15:38:15;2.57;;;2.47;;
3589;SDS011;1809;48.470;9.226;2022-10-16T15:40:41;5.50;;;3.40;;
3589;SDS011;1809;48.470;9.226;2022-10-16T15:43:07;3.10;;;2.83;;
3589;SDS011;1809;48.470;9.226;2022-10-16T15:45:33;10.37;;;3.10;;
3589;SDS011;1809;48.470;9.226;2022-10-16T15:47:59;6.40;;;2.40;;
3589;SDS011;1809;48.470;9.226;2022-10-16T15:50:25;3.47;;;3.13;;
3589;SDS011;1809;48.470;9.226;2022-10-16T15:52:51;3.37;;;2.37;;
3589;SDS011;1809;48.470;9.226;2022-10-16T15:55:16;5.43;;;2.10;;
3589;SDS011;1809;48.470;9.226;2022-10-16T15:57:43;8.00;;;2.37;;
3589;SDS011;1809;48.470;9.226;2022-10-16T16:00:10;7.53;;;2.30;;
3589;SDS011;1809;48.470;9.226;2022-10-16T16:02:42;2.00;;;1.90;;
3589;SDS011;1809;48.470;9.226;2022-10-16T16:05:14;2.57;;;1.80;;
3589;SDS011;1809;48.470;9.226;2022-10-16T16:07:39;2.43;;;2.30;;
3589;SDS011;1809;48.470;9.226;2022-10-16T16:10:06;3.43;;;1.73;;
3589;SDS011;1809;48.470;9.226;2022-10-16T16:12:33;2.00;;;1.83;;
3589;SDS011;1809;48.470;9.226;2022-10-16T16:14:59;4.73;;;1.87;;
3589;SDS011;1809;48.470;9.226;2022-10-16T16:17:24;10.20;;;2.67;;
3589;SDS011;1809;48.470;9.226;2022-10-16T16:19:50;10.20;;;2.67;;
3589;SDS011;1809;48.470;9.226;2022-10-16T16:22:16;8.80;;;2.53;;
3589;SDS011;1809;48.470;9.226;2022-10-16T16:24:41;6.13;;;2.27;;
3589;SDS011;1809;48.470;9.226;2022-10-16T16:27:06;6.87;;;3.37;;
3589;SDS011;1809;48.470;9.226;2022-10-16T16:29:32;9.90;;;2.53;;
3589;SDS011;1809;48.470;9.226;2022-10-16T16:31:58;5.07;;;2.37;;
3589;SDS011;1809;48.470;9.226;2022-10-16T16:34:25;2.67;;;2.23;;
3589;SDS011;1809;48.470;9.226;2022-10-16T16:36:51;2.80;;;2.60;;
3589;SDS011;1809;48.470;9.226;2022-10-16T16:39:17;4.73;;;2.33;;
3589;SDS011;1809;48.470;9.226;2022-10-16T16:41:43;8.43;;;2.83;;
3589;SDS011;1809;48.470;9.226;2022-10-16T16:44:10;7.33;;;3.13;;
3589;SDS011;1809;48.470;9.226;2022-10-16T16:46:36;4.17;;;2.70;;
3589;SDS011;1809;48.470;9.226;2022-10-16T16:49:04;7.40;;;4.63;;
3589;SDS011;1809;48.470;9.226;2022-10-16T16:51:31;5.03;;;3.30;;
3589;SDS011;1809;48.470;9.226;2022-10-16T16:53:57;7.97;;;3.90;;
3589;SDS011;1809;48.470;9.226;2022-10-16T16:56:23;4.40;;;3.47;;
3589;SDS011;1809;48.470;9.226;2022-10-16T16:58:51;9.80;;;3.20;;
3589;SDS011;1809;48.470;9.226;2022-10-16T17:01:18;3.73;;;2.47;;
3589;SDS011;1809;48.470;9.226;2022-10-16T17:03:44;3.03;;;2.43;;
3589;SDS011;1809;48.470;9.226;2022-10-16T17:06:10;2.53;;;2.03;;
3589;SDS011;1809;48.470;9.226;2022-10-16T17:08:37;7.93;;;2.40;;
3589;SDS011;1809;48.470;9.226;2022-10-16T17:11:04;4.70;;;2.37;;
3589;SDS011;1809;48.470;9.226;2022-10-16T17:13:31;2.47;;;2.30;;
3589;SDS011;1809;48.470;9.226;2022-10-16T17:16:02;13.40;;;2.90;;
3589;SDS011;1809;48.470;9.226;2022-10-16T17:18:29;6.57;;;2.67;;
3589;SDS011;1809;48.470;9.226;2022-10-16T17:20:58;10.80;;;2.10;;
3589;SDS011;1809;48.470;9.226;2022-10-16T17:23:24;14.87;;;2.53;;
3589;SDS011;1809;48.470;9.226;2022-10-16T17:25:49;4.03;;;1.90;;
3589;SDS011;1809;48.470;9.226;2022-10-16T17:28:14;4.53;;;2.00;;
3589;SDS011;1809;48.470;9.226;2022-10-16T17:30:40;2.90;;;2.70;;
3589;SDS011;1809;48.470;9.226;2022-10-16T17:33:07;14.90;;;2.57;;
3589;SDS011;1809;48.470;9.226;2022-10-16T17:35:43;3.77;;;2.40;;
3589;SDS011;1809;48.470;9.226;2022-10-16T17:38:10;5.13;;;2.80;;
3589;SDS011;1809;48.470;9.226;2022-10-16T17:40:37;5.07;;;2.90;;
3589;SDS011;1809;48.470;9.226;2022-10-16T17:43:03;4.40;;;2.27;;
3589;SDS011;1809;48.470;9.226;2022-10-16T17:45:29;3.50;;;2.33;;
3589;SDS011;1809;48.470;9.226;2022-10-16T17:47:54;3.57;;;2.57;;
3589;SDS011;1809;48.470;9.226;2022-10-16T17:50:20;4.73;;;2.07;;